sensor_id;sensor_type;location;lat;lon;timestamp;P1;durP1;ratioP1;P2;durP2;ratioP2
53959;SDS011;39866;48.638;-2.020;2024-02-23T00:02:04;12.57;;;6.00;;
53959;SDS011;39866;48.638;-2.020;2024-02-23T00:04:30;8.40;;;5.25;;
53959;SDS011;39866;48.638;-2.020;2024-02-23T00:06:55;8.38;;;5.55;;
53959;SDS011;39866;48.638;-2.020;2024-02-23T00:09:21;7.50;;;5.45;;
53959;SDS011;39866;48.638;-2.020;2024-02-23T00:11:46;8.10;;;5.25;;
53959;SDS011;39866;48.638;-2.020;2024-02-23T00:14:12;8.95;;;5.30;;
53959;SDS011;39866;48.638;-2.020;2024-02-23T00:16:41;9.93;;;5.60;;
53959;SDS011;39866;48.638;-2.020;2024-02-23T00:19:09;9.35;;;5.22;;
53959;SDS011;39866;48.638;-2.020;2024-02-23T00:21:36;8.27;;;4.90;;
53959;SDS011;39866;48.638;-2.020;2024-02-23T00:24:02;12.00;;;5.72;;
53959;SDS011;39866;48.638;-2.020;2024-02-23T00:26:27;6.95;;;5.18;;
53959;SDS011;39866;48.638;-2.020;2024-02-23T00:28:54;10.25;;;5.22;;
53959;SDS011;39866;48.638;-2.020;2024-02-23T00:31:19;8.65;;;5.20;;
53959;SDS011;39866;48.638;-2.020;2024-02-23T00:33:45;9.02;;;5.28;;
53959;SDS011;39866;48.638;-2.020;2024-02-23T00:36:10;9.55;;;5.38;;
53959;SDS011;39866;48.638;-2.020;2024-02-23T00:38:35;9.45;;;5.22;;
53959;SDS011;39866;48.638;-2.020;2024-02-23T00:41:01;11.95;;;5.97;;
53959;SDS011;39866;48.638;-2.020;2024-02-23T00:43:26;8.82;;;5.47;;
53959;SDS011;39866;48.638;-2.020;2024-02-23T00:45:54;10.75;;;5.22;;
53959;SDS011;39866;48.638;-2.020;2024-02-23T00:48:19;11.30;;;5.60;;
53959;SDS011;39866;48.638;-2.020;2024-02-23T00:50:45;9.95;;;5.75;;
53959;SDS011;39866;48.638;-2.020;2024-02-23T00:53:10;7.70;;;5.85;;
53959;SDS011;39866;48.638;-2.020;2024-02-23T00:55:35;13.18;;;5.85;;
53959;SDS011;39866;48.638;-2.020;2024-02-23T00:58:01;11.27;;;5.53;;
53959;SDS011;39866;48.638;-2.020;2024-02-23T01:00:26;10.20;;;5.18;;
53959;SDS011;39866;48.638;-2.020;2024-02-23T01:02:51;9.80;;;5.55;;
53959;SDS011;39866;48.638;-2.020;2024-02-23T01:05:17;10.45;;;5.75;;
53959;SDS011;39866;48.638;-2.020;2024-02-23T01:07:42;9.27;;;5.28;;
53959;SDS011;39866;48.638;-2.020;2024-02-23T01:10:08;9.68;;;5.53;;
53959;SDS011;39866;48.638;-2.020;2024-02-23T01:12:34;9.40;;;5.10;;
53959;SDS011;39866;48.638;-2.020;2024-02-23T01:15:00;9.38;;;5.32;;
53959;SDS011;39866;48.638;-2.020;2024-02-23T01:17:25;7.28;;;5.20;;
53959;SDS011;39866;48.638;-2.020;2024-02-23T01:19:51;9.43;;;6.07;;
53959;SDS011;39866;48.638;-2.020;2024-02-23T01:22:17;9.55;;;5.18;;
53959;SDS011;39866;48.638;-2.020;2024-02-23T01:24:42;10.43;;;5.13;;
53959;SDS011;39866;48.638;-2.020;2024-02-23T01:27:08;8.98;;;5.47;;
53959;SDS011;39866;48.638;-2.020;2024-02-23T01:29:33;8.25;;;5.45;;
53959;SDS011;39866;48.638;-2.020;2024-02-23T01:31:59;10.40;;;6.03;;
53959;SDS011;39866;48.638;-2.020;2024-02-23T01:34:25;8.60;;;5.15;;
53959;SDS011;39866;48.638;-2.020;2024-02-23T01:36:50;8.27;;;5.40;;
53959;SDS011;39866;48.638;-2.020;2024-02-23T01:39:15;7.50;;;5.18;;
53959;SDS011;39866;48.638;-2.020;2024-02-23T01:41:41;9.77;;;5.22;;
53959;SDS011;39866;48.638;-2.020;2024-02-23T01:44:07;7.35;;;4.95;;
53959;SDS011;39866;48.638;-2.020;2024-02-23T01:46:33;8.68;;;5.38;;
53959;SDS011;39866;48.638;-2.020;2024-02-23T01:48:58;9.23;;;5.45;;
53959;SDS011;39866;48.638;-2.020;2024-02-23T01:51:24;9.93;;;5.65;;
53959;SDS011;39866;48.638;-2.020;2024-02-23T01:53:50;7.78;;;4.85;;
53959;SDS011;39866;48.638;-2.020;2024-02-23T01:56:16;8.60;;;5.13;;
53959;SDS011;39866;48.638;-2.020;2024-02-23T01:58:45;7.07;;;5.00;;
53959;SDS011;39866;48.638;-2.020;2024-02-23T02:01:11;6.57;;;4.70;;
53959;SDS011;39866;48.638;-2.020;2024-02-23T02:03:38;4.90;;;4.25;;
53959;SDS011;39866;48.638;-2.020;2024-02-23T02:06:04;8.88;;;5.47;;
53959;SDS011;39866;48.638;-2.020;2024-02-23T02:08:31;6.60;;;4.68;;
53959;SDS011;39866;48.638;-2.020;2024-02-23T02:10:58;7.55;;;5.40;;
53959;SDS011;39866;48.638;-2.020;2024-02-23T02:13:23;5.97;;;4.75;;
53959;SDS011;39866;48.638;-2.020;2024-02-23T02:15:49;7.15;;;4.75;;
53959;SDS011;39866;48.638;-2.020;2024-02-23T02:18:14;6.72;;;4.90;;
53959;SDS011;39866;48.638;-2.020;2024-02-23T02:20:40;6.38;;;5.00;;
53959;SDS011;39866;48.638;-2.020;2024-02-23T02:23:17;5.28;;;4.50;;
53959;SDS011;39866;48.638;-2.020;2024-02-23T02:25:42;6.95;;;5.20;;
53959;SDS011;39866;48.638;-2.020;2024-02-23T02:28:07;5.40;;;4.85;;
53959;SDS011;39866;48.638;-2.020;2024-02-23T02:30:33;10.73;;;5.88;;
53959;SDS011;39866;48.638;-2.020;2024-02-23T02:32:58;5.40;;;4.90;;
53959;SDS011;39866;48.638;-2.020;2024-02-23T02:35:23;5.88;;;4.70;;
53959;SDS011;39866;48.638;-2.020;2024-02-23T02:37:49;7.95;;;5.13;;
53959;SDS011;39866;48.638;-2.020;2024-02-23T02:40:14;5.93;;;4.90;;
53959;SDS011;39866;48.638;-2.020;2024-02-23T02:42:39;5.63;;;4.65;;
53959;SDS011;39866;48.638;-2.020;2024-02-23T02:45:05;6.50;;;5.28;;
53959;SDS011;39866;48.638;-2.020;2024-02-23T02:47:31;7.00;;;5.63;;
53959;SDS011;39866;48.638;-2.020;2024-02-23T02:49:56;7.95;;;5.45;;
53959;SDS011;39866;48.638;-2.020;2024-02-23T02:52:21;6.18;;;5.18;;
53959;SDS011;39866;48.638;-2.020;2024-02-23T02:54:48;8.60;;;5.80;;
53959;SDS011;39866;48.638;-2.020;2024-02-23T02:57:14;7.22;;;5.43;;
53959;SDS011;39866;48.638;-2.020;2024-02-23T02:59:39;7.93;;;5.40;;
53959;SDS011;39866;48.638;-2.020;2024-02-23T03:02:05;9.15;;;5.18;;
53959;SDS011;39866;48.638;-2.020;2024-02-23T03:04:30;6.63;;;5.38;;
53959;SDS011;39866;48.638;-2.020;2024-02-23T03:06:55;8.63;;;5.65;;
53959;SDS011;39866;48.638;-2.020;2024-02-23T03:09:20;8.30;;;5.13;;
53959;SDS011;39866;48.638;-2.020;2024-02-23T03:11:46;6.90;;;5.20;;
53959;SDS011;39866;48.638;-2.020;2024-02-23T03:14:11;7.03;;;4.60;;
53959;SDS011;39866;48.638;-2.020;2024-02-23T03:16:37;11.10;;;5.30;;
53959;SDS011;39866;48.638;-2.020;2024-02-23T03:19:03;5.65;;;4.85;;
53959;SDS011;39866;48.638;-2.020;2024-02-23T03:21:28;7.40;;;4.75;;
53959;SDS011;39866;48.638;-2.020;2024-02-23T03:23:54;11.52;;;5.35;;
53959;SDS011;39866;48.638;-2.020;2024-02-23T03:26:19;8.52;;;5.15;;
53959;SDS011;39866;48.638;-2.020;2024-02-23T03:28:45;8.10;;;5.03;;
53959;SDS011;39866;48.638;-2.020;2024-02-23T03:31:10;10.15;;;5.30;;
53959;SDS011;39866;48.638;-2.020;2024-02-23T03:33:35;11.40;;;6.63;;
53959;SDS011;39866;48.638;-2.020;2024-02-23T03:36:01;10.65;;;5.50;;
53959;SDS011;39866;48.638;-2.020;2024-02-23T03:38:27;7.72;;;4.80;;
53959;SDS011;39866;48.638;-2.020;2024-02-23T03:40:54;8.88;;;4.72;;
53959;SDS011;39866;48.638;-2.020;2024-02-23T03:43:20;9.35;;;5.10;;
53959;SDS011;39866;48.638;-2.020;2024-02-23T03:45:46;8.55;;;5.55;;
53959;SDS011;39866;48.638;-2.020;2024-02-23T03:48:11;8.93;;;4.90;;
53959;SDS011;39866;48.638;-2.020;2024-02-23T03:50:36;7.88;;;5.10;;
53959;SDS011;39866;48.638;-2.020;2024-02-23T03:53:02;8.88;;;5.15;;
53959;SDS011;39866;48.638;-2.020;2024-02-23T03:55:28;8.18;;;5.32;;
53959;SDS011;39866;48.638;-2.020;2024-02-23T03:57:54;10.32;;;5.72;;
53959;SDS011;39866;48.638;-2.020;2024-02-23T04:00:19;6.20;;;4.63;;
53959;SDS011;39866;48.638;-2.020;2024-02-23T04:02:47;8.32;;;5.60;;
53959;SDS011;39866;48.638;-2.020;2024-02-23T04:05:12;6.53;;;4.72;;
53959;SDS011;39866;48.638;-2.020;2024-02-23T04:07:37;6.95;;;4.70;;
53959;SDS011;39866;48.638;-2.020;2024-02-23T04:10:03;8.27;;;5.70;;
53959;SDS011;39866;48.638;-2.020;2024-02-23T04:12:29;4.43;;;4.03;;
53959;SDS011;39866;48.638;-2.020;2024-02-23T04:14:56;6.47;;;5.30;;
53959;SDS011;39866;48.638;-2.020;2024-02-23T04:17:21;7.47;;;5.25;;
53959;SDS011;39866;48.638;-2.020;2024-02-23T04:19:47;6.05;;;4.50;;
53959;SDS011;39866;48.638;-2.020;2024-02-23T04:22:12;6.65;;;4.47;;
53959;SDS011;39866;48.638;-2.020;2024-02-23T04:24:38;6.32;;;5.20;;
53959;SDS011;39866;48.638;-2.020;2024-02-23T04:27:04;6.45;;;5.07;;
53959;SDS011;39866;48.638;-2.020;2024-02-23T04:29:30;6.20;;;4.57;;
53959;SDS011;39866;48.638;-2.020;2024-02-23T04:31:57;7.03;;;4.40;;
53959;SDS011;39866;48.638;-2.020;2024-02-23T04:34:22;5.80;;;5.05;;
53959;SDS011;39866;48.638;-2.020;2024-02-23T04:36:48;5.10;;;4.47;;
53959;SDS011;39866;48.638;-2.020;2024-02-23T04:39:14;4.57;;;3.97;;
53959;SDS011;39866;48.638;-2.020;2024-02-23T04:41:39;5.10;;;4.60;;
53959;SDS011;39866;48.638;-2.020;2024-02-23T04:44:04;4.80;;;4.35;;
53959;SDS011;39866;48.638;-2.020;2024-02-23T04:46:30;6.75;;;4.90;;
53959;SDS011;39866;48.638;-2.020;2024-02-23T04:48:56;5.43;;;4.60;;
53959;SDS011;39866;48.638;-2.020;2024-02-23T04:51:21;6.05;;;4.65;;
53959;SDS011;39866;48.638;-2.020;2024-02-23T04:53:48;6.18;;;4.95;;
53959;SDS011;39866;48.638;-2.020;2024-02-23T04:56:14;5.38;;;4.88;;
53959;SDS011;39866;48.638;-2.020;2024-02-23T04:58:40;6.50;;;4.75;;
53959;SDS011;39866;48.638;-2.020;2024-02-23T05:01:07;4.57;;;4.18;;
53959;SDS011;39866;48.638;-2.020;2024-02-23T05:03:33;5.95;;;4.50;;
53959;SDS011;39866;48.638;-2.020;2024-02-23T05:05:58;5.47;;;4.55;;
53959;SDS011;39866;48.638;-2.020;2024-02-23T05:08:23;6.65;;;5.20;;
53959;SDS011;39866;48.638;-2.020;2024-02-23T05:10:49;4.78;;;4.28;;
53959;SDS011;39866;48.638;-2.020;2024-02-23T05:13:15;5.38;;;4.88;;
53959;SDS011;39866;48.638;-2.020;2024-02-23T05:15:41;5.30;;;4.80;;
53959;SDS011;39866;48.638;-2.020;2024-02-23T05:18:06;4.60;;;4.20;;
53959;SDS011;39866;48.638;-2.020;2024-02-23T05:20:32;4.55;;;4.15;;
53959;SDS011;39866;48.638;-2.020;2024-02-23T05:22:57;4.75;;;4.22;;
53959;SDS011;39866;48.638;-2.020;2024-02-23T05:25:22;7.60;;;5.43;;
53959;SDS011;39866;48.638;-2.020;2024-02-23T05:27:48;5.07;;;4.60;;
53959;SDS011;39866;48.638;-2.020;2024-02-23T05:30:13;4.82;;;4.53;;
53959;SDS011;39866;48.638;-2.020;2024-02-23T05:32:39;4.85;;;4.45;;
53959;SDS011;39866;48.638;-2.020;2024-02-23T05:35:04;6.50;;;5.13;;
53959;SDS011;39866;48.638;-2.020;2024-02-23T05:37:30;5.47;;;4.97;;
53959;SDS011;39866;48.638;-2.020;2024-02-23T05:39:56;5.40;;;4.93;;
53959;SDS011;39866;48.638;-2.020;2024-02-23T05:42:21;5.40;;;4.90;;
53959;SDS011;39866;48.638;-2.020;2024-02-23T05:44:46;4.50;;;4.10;;
53959;SDS011;39866;48.638;-2.020;2024-02-23T05:47:13;6.07;;;5.18;;
53959;SDS011;39866;48.638;-2.020;2024-02-23T05:49:39;5.28;;;4.88;;
53959;SDS011;39866;48.638;-2.020;2024-02-23T05:52:04;5.13;;;4.70;;
53959;SDS011;39866;48.638;-2.020;2024-02-23T05:54:29;5.30;;;4.90;;
53959;SDS011;39866;48.638;-2.020;2024-02-23T05:56:55;5.78;;;5.20;;
53959;SDS011;39866;48.638;-2.020;2024-02-23T05:59:20;7.35;;;4.88;;
53959;SDS011;39866;48.638;-2.020;2024-02-23T06:01:45;5.15;;;4.72;;
53959;SDS011;39866;48.638;-2.020;2024-02-23T06:04:11;5.03;;;4.63;;
53959;SDS011;39866;48.638;-2.020;2024-02-23T06:06:36;6.72;;;6.05;;
53959;SDS011;39866;48.638;-2.020;2024-02-23T06:09:02;5.93;;;5.32;;
53959;SDS011;39866;48.638;-2.020;2024-02-23T06:11:29;5.75;;;5.18;;
53959;SDS011;39866;48.638;-2.020;2024-02-23T06:13:54;5.10;;;4.70;;
53959;SDS011;39866;48.638;-2.020;2024-02-23T06:16:19;6.07;;;4.22;;
53959;SDS011;39866;48.638;-2.020;2024-02-23T06:18:45;4.55;;;4.15;;
53959;SDS011;39866;48.638;-2.020;2024-02-23T06:21:14;5.20;;;4.75;;
53959;SDS011;39866;48.638;-2.020;2024-02-23T06:23:40;5.68;;;4.95;;
53959;SDS011;39866;48.638;-2.020;2024-02-23T06:26:06;6.00;;;4.07;;
53959;SDS011;39866;48.638;-2.020;2024-02-23T06:28:31;6.75;;;4.75;;
53959;SDS011;39866;48.638;-2.020;2024-02-23T06:30:57;5.85;;;5.05;;
53959;SDS011;39866;48.638;-2.020;2024-02-23T06:33:23;4.03;;;3.60;;
53959;SDS011;39866;48.638;-2.020;2024-02-23T06:35:48;6.43;;;4.95;;
53959;SDS011;39866;48.638;-2.020;2024-02-23T06:38:14;4.85;;;4.35;;
53959;SDS011;39866;48.638;-2.020;2024-02-23T06:40:40;5.28;;;4.78;;
53959;SDS011;39866;48.638;-2.020;2024-02-23T06:43:05;5.28;;;4.72;;
53959;SDS011;39866;48.638;-2.020;2024-02-23T06:45:30;5.72;;;4.85;;
53959;SDS011;39866;48.638;-2.020;2024-02-23T06:47:55;5.57;;;4.30;;
53959;SDS011;39866;48.638;-2.020;2024-02-23T06:50:21;5.57;;;4.80;;
53959;SDS011;39866;48.638;-2.020;2024-02-23T06:52:46;5.00;;;4.47;;
53959;SDS011;39866;48.638;-2.020;2024-02-23T06:55:13;4.85;;;4.22;;
53959;SDS011;39866;48.638;-2.020;2024-02-23T06:57:39;5.28;;;3.83;;
53959;SDS011;39866;48.638;-2.020;2024-02-23T07:00:04;5.47;;;3.80;;
53959;SDS011;39866;48.638;-2.020;2024-02-23T07:02:30;4.68;;;3.30;;
53959;SDS011;39866;48.638;-2.020;2024-02-23T07:04:59;3.28;;;2.80;;
53959;SDS011;39866;48.638;-2.020;2024-02-23T07:07:24;4.22;;;2.97;;
53959;SDS011;39866;48.638;-2.020;2024-02-23T07:09:50;4.72;;;3.13;;
53959;SDS011;39866;48.638;-2.020;2024-02-23T07:12:17;3.33;;;2.13;;
53959;SDS011;39866;48.638;-2.020;2024-02-23T07:14:42;3.97;;;2.60;;
53959;SDS011;39866;48.638;-2.020;2024-02-23T07:17:07;3.85;;;2.13;;
53959;SDS011;39866;48.638;-2.020;2024-02-23T07:19:33;2.95;;;2.05;;
53959;SDS011;39866;48.638;-2.020;2024-02-23T07:21:58;3.95;;;2.45;;
53959;SDS011;39866;48.638;-2.020;2024-02-23T07:24:24;3.38;;;2.13;;
53959;SDS011;39866;48.638;-2.020;2024-02-23T07:26:49;3.13;;;2.08;;
53959;SDS011;39866;48.638;-2.020;2024-02-23T07:29:14;4.45;;;2.65;;
53959;SDS011;39866;48.638;-2.020;2024-02-23T07:31:40;4.05;;;2.55;;
53959;SDS011;39866;48.638;-2.020;2024-02-23T07:34:05;4.60;;;2.45;;
53959;SDS011;39866;48.638;-2.020;2024-02-23T07:36:30;3.90;;;2.33;;
53959;SDS011;39866;48.638;-2.020;2024-02-23T07:38:56;4.30;;;2.10;;
53959;SDS011;39866;48.638;-2.020;2024-02-23T07:41:21;4.78;;;2.40;;
53959;SDS011;39866;48.638;-2.020;2024-02-23T07:43:47;3.28;;;1.85;;
53959;SDS011;39866;48.638;-2.020;2024-02-23T07:46:12;3.17;;;1.55;;
53959;SDS011;39866;48.638;-2.020;2024-02-23T07:48:38;3.05;;;1.80;;
53959;SDS011;39866;48.638;-2.020;2024-02-23T07:51:04;2.90;;;1.92;;
53959;SDS011;39866;48.638;-2.020;2024-02-23T07:53:30;7.20;;;2.45;;
53959;SDS011;39866;48.638;-2.020;2024-02-23T07:55:55;2.65;;;1.75;;
53959;SDS011;39866;48.638;-2.020;2024-02-23T07:58:20;4.90;;;2.58;;
53959;SDS011;39866;48.638;-2.020;2024-02-23T08:00:46;4.45;;;2.08;;
53959;SDS011;39866;48.638;-2.020;2024-02-23T08:03:12;3.28;;;2.35;;
53959;SDS011;39866;48.638;-2.020;2024-02-23T08:05:37;5.80;;;2.53;;
53959;SDS011;39866;48.638;-2.020;2024-02-23T08:08:02;4.22;;;2.00;;
53959;SDS011;39866;48.638;-2.020;2024-02-23T08:10:28;3.58;;;2.10;;
53959;SDS011;39866;48.638;-2.020;2024-02-23T08:12:53;4.22;;;2.10;;
53959;SDS011;39866;48.638;-2.020;2024-02-23T08:15:18;3.83;;;2.33;;
53959;SDS011;39866;48.638;-2.020;2024-02-23T08:17:44;4.00;;;2.45;;
53959;SDS011;39866;48.638;-2.020;2024-02-23T08:20:09;4.35;;;2.17;;
53959;SDS011;39866;48.638;-2.020;2024-02-23T08:22:35;4.75;;;2.67;;
53959;SDS011;39866;48.638;-2.020;2024-02-23T08:25:00;4.10;;;2.55;;
53959;SDS011;39866;48.638;-2.020;2024-02-23T08:27:25;3.05;;;2.17;;
53959;SDS011;39866;48.638;-2.020;2024-02-23T08:29:51;6.30;;;2.72;;
53959;SDS011;39866;48.638;-2.020;2024-02-23T08:32:16;3.95;;;2.33;;
53959;SDS011;39866;48.638;-2.020;2024-02-23T08:34:42;5.25;;;2.72;;
53959;SDS011;39866;48.638;-2.020;2024-02-23T08:37:08;4.10;;;2.10;;
53959;SDS011;39866;48.638;-2.020;2024-02-23T08:39:33;4.30;;;2.28;;
53959;SDS011;39866;48.638;-2.020;2024-02-23T08:42:00;4.97;;;2.33;;
53959;SDS011;39866;48.638;-2.020;2024-02-23T08:44:26;5.35;;;2.20;;
53959;SDS011;39866;48.638;-2.020;2024-02-23T08:46:51;3.65;;;2.45;;
53959;SDS011;39866;48.638;-2.020;2024-02-23T08:49:16;3.95;;;2.28;;
53959;SDS011;39866;48.638;-2.020;2024-02-23T08:51:42;6.15;;;2.95;;
53959;SDS011;39866;48.638;-2.020;2024-02-23T08:54:07;4.07;;;2.60;;
53959;SDS011;39866;48.638;-2.020;2024-02-23T08:56:38;5.28;;;2.78;;
53959;SDS011;39866;48.638;-2.020;2024-02-23T08:59:04;4.70;;;2.72;;
53959;SDS011;39866;48.638;-2.020;2024-02-23T09:01:30;5.68;;;3.00;;
53959;SDS011;39866;48.638;-2.020;2024-02-23T09:03:55;4.72;;;2.97;;
53959;SDS011;39866;48.638;-2.020;2024-02-23T09:06:20;5.07;;;2.67;;
53959;SDS011;39866;48.638;-2.020;2024-02-23T09:08:46;4.18;;;2.72;;
53959;SDS011;39866;48.638;-2.020;2024-02-23T09:11:11;3.53;;;2.80;;
53959;SDS011;39866;48.638;-2.020;2024-02-23T09:13:38;3.83;;;2.67;;
53959;SDS011;39866;48.638;-2.020;2024-02-23T09:16:04;3.90;;;2.58;;
53959;SDS011;39866;48.638;-2.020;2024-02-23T09:18:29;5.45;;;2.78;;
53959;SDS011;39866;48.638;-2.020;2024-02-23T09:20:55;4.70;;;3.00;;
53959;SDS011;39866;48.638;-2.020;2024-02-23T09:23:20;4.25;;;2.90;;
53959;SDS011;39866;48.638;-2.020;2024-02-23T09:25:45;4.68;;;2.63;;
53959;SDS011;39866;48.638;-2.020;2024-02-23T09:28:11;3.72;;;2.15;;
53959;SDS011;39866;48.638;-2.020;2024-02-23T09:30:36;5.93;;;2.60;;
53959;SDS011;39866;48.638;-2.020;2024-02-23T09:33:02;4.07;;;2.10;;
53959;SDS011;39866;48.638;-2.020;2024-02-23T09:35:28;3.42;;;2.10;;
53959;SDS011;39866;48.638;-2.020;2024-02-23T09:37:53;2.55;;;2.10;;
53959;SDS011;39866;48.638;-2.020;2024-02-23T09:40:18;3.75;;;2.25;;
53959;SDS011;39866;48.638;-2.020;2024-02-23T09:42:48;3.00;;;2.50;;
53959;SDS011;39866;48.638;-2.020;2024-02-23T09:45:21;4.15;;;2.58;;
53959;SDS011;39866;48.638;-2.020;2024-02-23T09:47:49;4.60;;;2.85;;
53959;SDS011;39866;48.638;-2.020;2024-02-23T09:50:14;6.32;;;3.00;;
53959;SDS011;39866;48.638;-2.020;2024-02-23T09:52:42;5.38;;;3.40;;
53959;SDS011;39866;48.638;-2.020;2024-02-23T09:55:08;4.78;;;2.80;;
53959;SDS011;39866;48.638;-2.020;2024-02-23T09:57:33;5.78;;;3.35;;
53959;SDS011;39866;48.638;-2.020;2024-02-23T10:00:01;4.55;;;3.28;;
53959;SDS011;39866;48.638;-2.020;2024-02-23T10:02:31;4.57;;;3.20;;
53959;SDS011;39866;48.638;-2.020;2024-02-23T10:04:57;6.47;;;3.40;;
53959;SDS011;39866;48.638;-2.020;2024-02-23T10:07:24;5.22;;;3.22;;
53959;SDS011;39866;48.638;-2.020;2024-02-23T10:09:50;5.85;;;3.58;;
53959;SDS011;39866;48.638;-2.020;2024-02-23T10:12:16;7.75;;;4.63;;
53959;SDS011;39866;48.638;-2.020;2024-02-23T10:14:41;4.55;;;3.10;;
53959;SDS011;39866;48.638;-2.020;2024-02-23T10:17:07;5.95;;;3.45;;
53959;SDS011;39866;48.638;-2.020;2024-02-23T10:19:33;6.10;;;3.70;;
53959;SDS011;39866;48.638;-2.020;2024-02-23T10:21:59;8.07;;;4.07;;
53959;SDS011;39866;48.638;-2.020;2024-02-23T10:24:24;6.97;;;3.78;;
53959;SDS011;39866;48.638;-2.020;2024-02-23T10:26:50;4.43;;;3.85;;
53959;SDS011;39866;48.638;-2.020;2024-02-23T10:29:16;6.85;;;4.13;;
53959;SDS011;39866;48.638;-2.020;2024-02-23T10:31:41;8.38;;;4.07;;
53959;SDS011;39866;48.638;-2.020;2024-02-23T10:34:09;6.05;;;4.05;;
53959;SDS011;39866;48.638;-2.020;2024-02-23T10:36:37;6.07;;;3.78;;
53959;SDS011;39866;48.638;-2.020;2024-02-23T10:39:07;5.22;;;3.72;;
53959;SDS011;39866;48.638;-2.020;2024-02-23T10:41:37;6.93;;;4.18;;
53959;SDS011;39866;48.638;-2.020;2024-02-23T10:44:09;5.70;;;3.58;;
53959;SDS011;39866;48.638;-2.020;2024-02-23T10:46:36;6.05;;;4.22;;
53959;SDS011;39866;48.638;-2.020;2024-02-23T10:49:02;7.35;;;4.00;;
53959;SDS011;39866;48.638;-2.020;2024-02-23T10:51:28;5.57;;;3.70;;
53959;SDS011;39866;48.638;-2.020;2024-02-23T10:53:54;6.00;;;3.83;;
53959;SDS011;39866;48.638;-2.020;2024-02-23T10:56:20;5.30;;;4.10;;
53959;SDS011;39866;48.638;-2.020;2024-02-23T10:58:47;5.95;;;3.75;;
53959;SDS011;39866;48.638;-2.020;2024-02-23T11:01:12;6.40;;;4.55;;
53959;SDS011;39866;48.638;-2.020;2024-02-23T11:03:41;5.70;;;3.35;;
53959;SDS011;39866;48.638;-2.020;2024-02-23T11:06:09;5.53;;;3.90;;
53959;SDS011;39866;48.638;-2.020;2024-02-23T11:08:35;7.80;;;3.88;;
53959;SDS011;39866;48.638;-2.020;2024-02-23T11:11:10;7.53;;;4.57;;
53959;SDS011;39866;48.638;-2.020;2024-02-23T11:13:36;5.38;;;4.45;;
53959;SDS011;39866;48.638;-2.020;2024-02-23T11:16:03;6.03;;;4.22;;
53959;SDS011;39866;48.638;-2.020;2024-02-23T11:18:29;9.85;;;4.82;;
53959;SDS011;39866;48.638;-2.020;2024-02-23T11:21:00;5.60;;;3.90;;
53959;SDS011;39866;48.638;-2.020;2024-02-23T11:23:27;6.25;;;4.53;;
53959;SDS011;39866;48.638;-2.020;2024-02-23T11:26:05;8.10;;;4.57;;
53959;SDS011;39866;48.638;-2.020;2024-02-23T11:28:41;5.18;;;4.10;;
53959;SDS011;39866;48.638;-2.020;2024-02-23T11:31:11;10.55;;;5.45;;
53959;SDS011;39866;48.638;-2.020;2024-02-23T11:33:38;6.82;;;4.47;;
53959;SDS011;39866;48.638;-2.020;2024-02-23T11:36:06;7.18;;;4.57;;
53959;SDS011;39866;48.638;-2.020;2024-02-23T11:38:33;4.85;;;3.90;;
53959;SDS011;39866;48.638;-2.020;2024-02-23T11:40:59;7.38;;;4.85;;
53959;SDS011;39866;48.638;-2.020;2024-02-23T11:43:26;6.38;;;4.95;;
53959;SDS011;39866;48.638;-2.020;2024-02-23T11:45:52;7.18;;;4.70;;
53959;SDS011;39866;48.638;-2.020;2024-02-23T11:48:18;7.22;;;4.13;;
53959;SDS011;39866;48.638;-2.020;2024-02-23T11:50:43;8.10;;;4.72;;
53959;SDS011;39866;48.638;-2.020;2024-02-23T11:53:08;6.72;;;4.38;;
53959;SDS011;39866;48.638;-2.020;2024-02-23T11:55:34;7.88;;;4.30;;
53959;SDS011;39866;48.638;-2.020;2024-02-23T11:58:00;5.45;;;4.22;;
53959;SDS011;39866;48.638;-2.020;2024-02-23T12:00:25;7.30;;;4.40;;
53959;SDS011;39866;48.638;-2.020;2024-02-23T12:02:51;7.90;;;5.43;;
53959;SDS011;39866;48.638;-2.020;2024-02-23T12:05:16;4.90;;;4.40;;
53959;SDS011;39866;48.638;-2.020;2024-02-23T12:07:42;6.72;;;5.05;;
53959;SDS011;39866;48.638;-2.020;2024-02-23T12:10:08;6.80;;;4.55;;
53959;SDS011;39866;48.638;-2.020;2024-02-23T12:12:35;5.75;;;4.53;;
53959;SDS011;39866;48.638;-2.020;2024-02-23T12:15:01;6.43;;;4.50;;
53959;SDS011;39866;48.638;-2.020;2024-02-23T12:17:27;7.90;;;4.88;;
53959;SDS011;39866;48.638;-2.020;2024-02-23T12:20:01;7.22;;;4.47;;
53959;SDS011;39866;48.638;-2.020;2024-02-23T12:22:27;6.00;;;4.30;;
53959;SDS011;39866;48.638;-2.020;2024-02-23T12:24:53;7.50;;;4.80;;
53959;SDS011;39866;48.638;-2.020;2024-02-23T12:27:21;5.95;;;4.85;;
53959;SDS011;39866;48.638;-2.020;2024-02-23T12:29:54;5.63;;;4.50;;
53959;SDS011;39866;48.638;-2.020;2024-02-23T12:32:19;8.05;;;5.13;;
53959;SDS011;39866;48.638;-2.020;2024-02-23T12:34:45;5.82;;;5.03;;
53959;SDS011;39866;48.638;-2.020;2024-02-23T12:37:14;5.70;;;4.88;;
53959;SDS011;39866;48.638;-2.020;2024-02-23T12:39:43;5.88;;;5.07;;
53959;SDS011;39866;48.638;-2.020;2024-02-23T12:42:11;6.88;;;5.45;;
53959;SDS011;39866;48.638;-2.020;2024-02-23T12:44:36;6.85;;;4.85;;
53959;SDS011;39866;48.638;-2.020;2024-02-23T12:47:02;9.32;;;5.85;;
53959;SDS011;39866;48.638;-2.020;2024-02-23T12:49:27;7.30;;;4.97;;
53959;SDS011;39866;48.638;-2.020;2024-02-23T12:51:53;7.18;;;5.22;;
53959;SDS011;39866;48.638;-2.020;2024-02-23T12:54:18;5.65;;;5.05;;
53959;SDS011;39866;48.638;-2.020;2024-02-23T12:56:44;5.45;;;4.88;;
53959;SDS011;39866;48.638;-2.020;2024-02-23T12:59:09;7.07;;;5.30;;
53959;SDS011;39866;48.638;-2.020;2024-02-23T13:01:35;6.43;;;4.85;;
53959;SDS011;39866;48.638;-2.020;2024-02-23T13:04:02;6.80;;;5.28;;
53959;SDS011;39866;48.638;-2.020;2024-02-23T13:06:28;8.63;;;4.80;;
53959;SDS011;39866;48.638;-2.020;2024-02-23T13:08:54;6.38;;;5.40;;
53959;SDS011;39866;48.638;-2.020;2024-02-23T13:11:19;7.60;;;5.35;;
53959;SDS011;39866;48.638;-2.020;2024-02-23T13:13:44;4.80;;;4.22;;
53959;SDS011;39866;48.638;-2.020;2024-02-23T13:16:10;3.90;;;3.60;;
53959;SDS011;39866;48.638;-2.020;2024-02-23T13:18:35;6.53;;;4.32;;
53959;SDS011;39866;48.638;-2.020;2024-02-23T13:21:01;4.68;;;4.28;;
53959;SDS011;39866;48.638;-2.020;2024-02-23T13:23:26;4.93;;;3.63;;
53959;SDS011;39866;48.638;-2.020;2024-02-23T13:25:51;3.92;;;3.47;;
53959;SDS011;39866;48.638;-2.020;2024-02-23T13:28:17;5.43;;;3.90;;
53959;SDS011;39866;48.638;-2.020;2024-02-23T13:30:42;3.97;;;3.67;;
53959;SDS011;39866;48.638;-2.020;2024-02-23T13:33:08;5.15;;;3.97;;
53959;SDS011;39866;48.638;-2.020;2024-02-23T13:35:35;4.30;;;3.75;;
53959;SDS011;39866;48.638;-2.020;2024-02-23T13:38:01;4.38;;;4.00;;
53959;SDS011;39866;48.638;-2.020;2024-02-23T13:40:28;5.82;;;4.55;;
53959;SDS011;39866;48.638;-2.020;2024-02-23T13:42:54;4.00;;;3.60;;
53959;SDS011;39866;48.638;-2.020;2024-02-23T13:45:20;5.22;;;4.10;;
53959;SDS011;39866;48.638;-2.020;2024-02-23T13:47:58;4.72;;;4.18;;
53959;SDS011;39866;48.638;-2.020;2024-02-23T13:50:25;6.72;;;4.60;;
53959;SDS011;39866;48.638;-2.020;2024-02-23T13:52:51;6.47;;;4.25;;
53959;SDS011;39866;48.638;-2.020;2024-02-23T13:55:17;5.43;;;4.50;;
53959;SDS011;39866;48.638;-2.020;2024-02-23T13:57:42;5.68;;;4.10;;
53959;SDS011;39866;48.638;-2.020;2024-02-23T14:00:08;8.90;;;4.97;;
53959;SDS011;39866;48.638;-2.020;2024-02-23T14:02:37;6.32;;;4.82;;
53959;SDS011;39866;48.638;-2.020;2024-02-23T14:05:05;9.70;;;4.85;;
53959;SDS011;39866;48.638;-2.020;2024-02-23T14:07:34;8.82;;;5.30;;
53959;SDS011;39866;48.638;-2.020;2024-02-23T14:10:00;9.15;;;5.03;;
53959;SDS011;39866;48.638;-2.020;2024-02-23T14:12:25;10.95;;;5.18;;
53959;SDS011;39866;48.638;-2.020;2024-02-23T14:14:51;6.95;;;5.00;;
53959;SDS011;39866;48.638;-2.020;2024-02-23T14:17:16;9.95;;;5.85;;
53959;SDS011;39866;48.638;-2.020;2024-02-23T14:19:41;9.15;;;6.05;;
53959;SDS011;39866;48.638;-2.020;2024-02-23T14:22:07;10.25;;;5.40;;
53959;SDS011;39866;48.638;-2.020;2024-02-23T14:24:32;11.05;;;5.13;;
53959;SDS011;39866;48.638;-2.020;2024-02-23T14:26:57;7.65;;;4.85;;